Time;durP1;ratioP1;P1;durP2;ratioP2;P2;SDS_P1;SDS_P2;PMS_P1;PMS_P2;Temp;Humidity;BMP_temperature;BMP_pressure;BME280_temperature;BME280_humidity;BME280_pressure;Samples;Min_cycle;Max_cycle;Signal;HPM_P1;HPM_P2
2023/10/09 00:01:12;;;;;;;5.97;2.30;;;;;;;14.93;100.00;96930.34;5040130;28;20217;-69
2023/10/09 00:03:39;;;;;;;4.85;2.38;;;;;;;14.88;100.00;96923.94;5039334;28;20221;-69
2023/10/09 00:06:10;;;;;;;7.27;2.53;;;;;;;14.92;100.00;96926.06;5039760;28;20201;-69
2023/10/09 00:08:38;;;;;;;5.83;2.70;;;;;;;14.80;100.00;96922.25;5039236;28;20228;-69
2023/10/09 00:11:16;;;;;;;5.70;2.30;;;;;;;14.54;100.00;96925.59;5038888;28;20205;-69
2023/10/09 00:13:48;;;;;;;9.03;2.50;;;;;;;14.42;100.00;96917.28;5039403;28;21089;-69
2023/10/09 00:16:23;;;;;;;7.33;2.80;;;;;;;14.50;100.00;96918.97;5039411;28;20634;-69
2023/10/09 00:18:50;;;;;;;4.23;2.40;;;;;;;14.30;100.00;96905.47;5039131;28;20800;-69
2023/10/09 00:21:20;;;;;;;3.87;2.27;;;;;;;14.38;100.00;96904.56;5038536;28;20778;-69
2023/10/09 00:23:52;;;;;;;6.03;2.73;;;;;;;14.25;100.00;96907.03;5038954;28;20291;-69
2023/10/09 00:26:20;;;;;;;8.80;3.37;;;;;;;14.10;100.00;96904.38;5038922;28;20229;-69
2023/10/09 00:28:47;;;;;;;9.90;2.53;;;;;;;14.09;100.00;96900.09;5038321;28;20232;-69
2023/10/09 00:31:16;;;;;;;7.45;2.72;;;;;;;14.22;100.00;96900.25;5038653;28;20267;-69
2023/10/09 00:33:42;;;;;;;5.50;2.40;;;;;;;14.16;100.00;96897.53;5039069;28;20201;-69
2023/10/09 00:36:18;;;;;;;7.83;2.77;;;;;;;14.20;100.00;96896.97;5038277;28;20210;-69
2023/10/09 00:38:49;;;;;;;5.40;2.80;;;;;;;14.31;100.00;96890.41;5038151;28;20199;-69
2023/10/09 00:41:20;;;;;;;8.87;2.57;;;;;;;14.25;100.00;96888.47;5039162;28;20251;-69
2023/10/09 00:43:49;;;;;;;8.27;2.47;;;;;;;14.25;100.00;96883.97;5038700;28;20739;-70
2023/10/09 00:46:23;;;;;;;9.73;2.83;;;;;;;14.35;100.00;96883.72;5037962;28;20202;-69
2023/10/09 00:48:52;;;;;;;7.83;2.70;;;;;;;14.41;100.00;96882.97;5038606;28;20235;-70
2023/10/09 00:51:21;;;;;;;7.03;2.90;;;;;;;14.39;100.00;96877.03;5039156;28;20216;-69
2023/10/09 00:53:51;;;;;;;12.53;3.40;;;;;;;14.28;100.00;96869.53;5039000;28;20211;-69
2023/10/09 00:56:28;;;;;;;5.00;2.10;;;;;;;14.21;100.00;96860.69;5038114;28;21017;-70
2023/10/09 00:59:00;;;;;;;7.60;2.58;;;;;;;14.25;100.00;96865.41;5038471;28;20587;-70
2023/10/09 01:01:34;;;;;;;9.57;3.40;;;;;;;14.16;100.00;96868.38;5038421;28;20310;-70
2023/10/09 01:04:10;;;;;;;3.53;1.73;;;;;;;14.24;100.00;96865.59;5038272;28;20687;-69
2023/10/09 01:06:43;;;;;;;12.38;2.75;;;;;;;14.17;100.00;96851.47;5038666;28;20262;-69
2023/10/09 01:09:12;;;;;;;11.60;2.72;;;;;;;14.15;100.00;96862.25;5036980;28;20316;-70
2023/10/09 01:11:48;;;;;;;5.67;2.50;;;;;;;14.11;100.00;96849.53;5038124;28;20298;-69
2023/10/09 01:14:14;;;;;;;5.90;2.50;;;;;;;14.02;100.00;96846.13;5037988;28;20209;-69
2023/10/09 01:16:46;;;;;;;12.37;2.60;;;;;;;14.01;100.00;96846.31;5038286;28;20290;-70
2023/10/09 01:19:23;;;;;;;13.10;2.97;;;;;;;13.95;100.00;96839.09;5037706;28;20209;-70
2023/10/09 01:21:50;;;;;;;10.03;2.93;;;;;;;13.96;100.00;96846.03;5038060;28;20232;-69
2023/10/09 01:24:19;;;;;;;13.17;2.87;;;;;;;14.10;100.00;96847.88;5037115;28;20213;-70
2023/10/09 01:26:47;;;;;;;6.57;2.00;;;;;;;14.02;100.00;96846.13;5037737;28;20304;-70
2023/10/09 01:29:16;;;;;;;12.53;3.53;;;;;;;14.10;100.00;96845.22;5037272;28;20316;-69
2023/10/09 01:31:51;;;;;;;7.13;2.97;;;;;;;14.02;100.00;96845.31;5037128;28;20840;-69
2023/10/09 01:34:18;;;;;;;6.13;2.20;;;;;;;14.07;100.00;96834.97;5037907;28;20196;-69
2023/10/09 01:36:48;;;;;;;9.27;3.30;;;;;;;13.98;100.00;96838.72;5037319;28;20228;-70
2023/10/09 01:39:23;;;;;;;7.20;2.33;;;;;;;13.91;100.00;96837.81;5037279;28;20233;-69
2023/10/09 01:41:58;;;;;;;9.17;2.30;;;;;;;14.02;100.00;96837.34;5037124;28;20228;-69
2023/10/09 01:44:26;;;;;;;8.47;2.90;;;;;;;13.85;100.00;96835.91;5037841;28;20291;-69
2023/10/09 01:46:54;;;;;;;7.53;3.27;;;;;;;13.94;100.00;96837.47;5037018;28;20767;-70
2023/10/09 01:49:29;;;;;;;5.73;2.20;;;;;;;13.95;100.00;96839.09;5036834;28;20315;-69
2023/10/09 01:51:58;;;;;;;8.27;2.57;;;;;;;13.96;100.00;96831.97;5037094;28;20303;-69
2023/10/09 01:54:36;;;;;;;3.80;2.20;;;;;;;13.95;100.00;96827.66;5037598;28;20654;-69
2023/10/09 01:57:09;;;;;;;6.63;3.47;;;;;;;14.14;100.00;96827.97;5036808;28;20217;-69
2023/10/09 01:59:38;;;;;;;6.47;2.33;;;;;;;14.02;100.00;96829.41;5037743;28;20304;-69
2023/10/09 02:02:24;;;;;;;10.57;2.93;;;;;;;14.03;100.00;96825.75;5036173;28;20894;-70
2023/10/09 02:04:51;;;;;;;9.70;2.80;;;;;;;13.95;100.00;96819.72;5037328;28;20263;-70
2023/10/09 02:07:22;;;;;;;9.10;2.77;;;;;;;13.96;100.00;96816.88;5035251;28;20202;-69
2023/10/09 02:09:48;;;;;;;6.37;2.90;;;;;;;14.05;100.00;96818.44;5037387;28;20357;-69
2023/10/09 02:12:17;;;;;;;9.13;2.73;;;;;;;14.22;100.00;96819.94;5036331;28;20421;-69
2023/10/09 02:14:44;;;;;;;10.27;3.30;;;;;;;14.18;100.00;96813.34;5035824;28;20320;-69
2023/10/09 02:17:17;;;;;;;5.03;3.20;;;;;;;14.20;100.00;96812.13;5036124;28;20757;-69
2023/10/09 02:19:48;;;;;;;6.83;2.67;;;;;;;14.28;100.00;96813.88;5037239;28;20198;-69
2023/10/09 02:22:15;;;;;;;8.87;2.73;;;;;;;14.31;100.00;96814.31;5036296;28;20275;-69
2023/10/09 02:24:49;;;;;;;10.93;2.93;;;;;;;14.33;100.00;96816.78;5036687;28;20690;-69
2023/10/09 02:27:39;;;;;;;7.87;2.47;;;;;;;14.42;100.00;96805.91;5035841;28;21105;-69
2023/10/09 02:30:18;;;;;;;7.03;2.40;;;;;;;14.50;100.00;96813.75;5035298;28;20297;-69
2023/10/09 02:32:48;;;;;;;6.77;3.17;;;;;;;14.52;100.00;96816.19;5036806;28;20228;-69
2023/10/09 02:35:35;;;;;;;9.07;3.30;;;;;;;14.51;100.00;96814.53;5036644;28;20211;-69
2023/10/09 02:38:04;;;;;;;6.30;1.95;;;;;;;14.43;100.00;96812.00;5035799;28;20205;-69
2023/10/09 02:40:40;;;;;;;12.47;3.57;;;;;;;14.40;100.00;96804.44;5036935;28;20659;-69
2023/10/09 02:43:12;;;;;;;8.45;2.83;;;;;;;14.45;100.00;96799.41;5035719;28;20318;-69
2023/10/09 02:45:49;;;;;;;7.65;2.20;;;;;;;14.42;100.00;96797.09;5037167;28;20274;-69
2023/10/09 02:48:19;;;;;;;6.73;3.17;;;;;;;14.42;100.00;96795.28;5035714;28;20205;-69
2023/10/09 02:50:45;;;;;;;7.93;2.90;;;;;;;14.35;100.00;96804.19;5036312;28;20278;-69
2023/10/09 02:53:18;;;;;;;6.77;2.57;;;;;;;14.35;100.00;96794.38;5035938;28;20218;-69
2023/10/09 02:56:03;;;;;;;9.52;2.97;;;;;;;14.35;100.00;96799.69;5037171;28;20235;-69
2023/10/09 02:58:36;;;;;;;10.83;3.00;;;;;;;14.41;100.00;96790.16;5035687;28;20216;-69
2023/10/09 03:01:03;;;;;;;5.32;2.58;;;;;;;14.35;100.00;96797.03;5035757;28;20296;-69
2023/10/09 03:03:29;;;;;;;6.10;2.47;;;;;;;14.32;100.00;96789.47;5035915;28;20220;-69
2023/10/09 03:05:56;;;;;;;9.73;3.13;;;;;;;14.38;100.00;96793.19;5036212;28;20585;-69
2023/10/09 03:08:22;;;;;;;9.20;2.80;;;;;;;14.31;100.00;96787.00;5035827;28;20197;-69
2023/10/09 03:10:49;;;;;;;4.47;2.57;;;;;;;14.28;100.00;96788.19;5037107;28;20220;-69
2023/10/09 03:13:19;;;;;;;4.53;2.33;;;;;;;14.20;100.00;96784.81;5035722;28;20247;-69
2023/10/09 03:15:48;;;;;;;8.60;2.53;;;;;;;14.39;100.00;96787.69;5035871;28;20208;-69
2023/10/09 03:18:15;;;;;;;9.18;2.30;;;;;;;14.32;100.00;96793.91;5035852;28;20205;-69
2023/10/09 03:20:42;;;;;;;9.30;2.67;;;;;;;14.22;100.00;96794.22;5035620;28;20200;-69
2023/10/09 03:23:09;;;;;;;12.87;3.50;;;;;;;14.26;100.00;96789.38;5035564;28;20233;-69
2023/10/09 03:25:37;;;;;;;6.33;2.57;;;;;;;14.12;100.00;96785.75;5036469;28;20204;-69
2023/10/09 03:28:04;;;;;;;8.37;2.60;;;;;;;14.24;100.00;96780.78;5035735;28;20251;-69
2023/10/09 03:30:32;;;;;;;9.37;2.47;;;;;;;14.26;100.00;96784.09;5035662;28;20225;-69
2023/10/09 03:33:02;;;;;;;9.32;3.53;;;;;;;14.41;100.00;96782.19;5035405;28;20715;-69
2023/10/09 03:35:31;;;;;;;8.73;2.63;;;;;;;14.20;100.00;96790.13;5035447;28;20197;-69
2023/10/09 03:38:00;;;;;;;11.57;3.10;;;;;;;14.35;100.00;96777.66;5035591;28;21136;-69
2023/10/09 03:40:28;;;;;;;9.45;2.60;;;;;;;14.41;100.00;96777.72;5036070;28;20207;-69
2023/10/09 03:42:54;;;;;;;4.78;2.53;;;;;;;14.48;100.00;96783.09;5035591;28;20221;-69
2023/10/09 03:45:26;;;;;;;8.15;2.92;;;;;;;14.56;100.00;96775.88;5035460;28;20690;-69
2023/10/09 03:47:57;;;;;;;9.80;2.73;;;;;;;14.69;100.00;96768.84;5035277;28;20201;-69
2023/10/09 03:50:35;;;;;;;6.23;2.60;;;;;;;14.82;100.00;96776.13;5035545;28;20221;-69
2023/10/09 03:53:06;;;;;;;5.30;2.63;;;;;;;14.84;100.00;96772.25;5035662;28;20282;-69
2023/10/09 03:55:33;;;;;;;6.47;2.88;;;;;;;14.81;100.00;96779.78;5034184;28;20762;-69
2023/10/09 03:58:00;;;;;;;9.43;3.45;;;;;;;14.93;100.00;96784.41;5035343;28;20206;-69
2023/10/09 04:00:29;;;;;;;14.48;3.78;;;;;;;15.10;100.00;96777.81;5035359;28;21223;-69
2023/10/09 04:02:56;;;;;;;12.65;3.35;;;;;;;15.13;100.00;96780.06;5035912;28;20232;-69
2023/10/09 04:05:25;;;;;;;9.55;3.38;;;;;;;15.15;100.00;96778.06;5035548;28;20232;-69
2023/10/09 04:07:53;;;;;;;7.83;3.63;;;;;;;15.08;100.00;96774.50;5034851;28;20667;-69
2023/10/09 04:10:50;;;;;;;10.65;2.92;;;;;;;15.16;100.00;96771.72;5035325;28;20298;-69
2023/10/09 04:13:22;;;;;;;14.85;3.13;;;;;;;15.17;100.00;96765.38;5035560;28;20239;-69
2023/10/09 04:15:49;;;;;;;5.05;2.40;;;;;;;15.17;100.00;96773.34;5034815;28;20686;-69
2023/10/09 04:18:16;;;;;;;4.90;2.72;;;;;;;15.13;100.00;96769.44;5034845;28;20286;-69
2023/10/09 04:23:35;;;;;;;8.60;2.35;;;;;;;15.10;100.00;96764.53;5035106;28;20236;-69
2023/10/09 04:26:10;;;;;;;8.02;2.72;;;;;;;15.15;100.00;96761.28;5034888;28;20288;-69
2023/10/09 04:28:37;;;;;;;9.45;2.53;;;;;;;15.17;100.00;96759.25;5035421;28;20709;-69
2023/10/09 04:31:06;;;;;;;8.77;2.60;;;;;;;15.15;100.00;96761.28;5036661;28;20610;-69
2023/10/09 04:33:42;;;;;;;6.82;2.80;;;;;;;15.19;100.00;96752.75;5039606;28;20313;-69
2023/10/09 04:36:21;;;;;;;9.25;3.08;;;;;;;15.44;100.00;96756.63;5039253;28;20319;-69
2023/10/09 04:38:55;;;;;;;8.57;2.78;;;;;;;15.30;100.00;96760.22;5038784;28;20287;-69
2023/10/09 04:41:27;;;;;;;6.85;2.65;;;;;;;15.25;100.00;96762.66;5039013;28;20208;-69
2023/10/09 04:44:03;;;;;;;10.60;3.30;;;;;;;15.25;100.00;96760.00;5039138;28;20220;-69
2023/10/09 04:46:35;;;;;;;7.30;2.55;;;;;;;15.19;100.00;96760.72;5038957;28;20243;-69
2023/10/09 04:49:26;;;;;;;5.88;2.60;;;;;;;15.23;100.00;96764.66;5038715;28;20209;-69
2023/10/09 04:52:04;;;;;;;10.50;3.72;;;;;;;15.30;100.00;96757.59;5038526;28;20217;-69
2023/10/09 04:54:39;;;;;;;6.13;2.85;;;;;;;15.17;100.00;96765.38;5039151;28;20197;-69
2023/10/09 04:57:17;;;;;;;5.65;2.70;;;;;;;15.10;100.00;96759.22;5038236;28;20220;-69
2023/10/09 04:59:47;;;;;;;7.45;2.40;;;;;;;15.08;100.00;96761.22;5039202;28;20274;-69
2023/10/09 05:02:19;;;;;;;8.82;2.50;;;;;;;15.09;100.00;96767.38;5037373;28;20232;-69
2023/10/09 05:04:48;;;;;;;10.77;2.80;;;;;;;15.21;100.00;96772.00;5038378;28;20585;-69
2023/10/09 05:07:23;;;;;;;14.85;2.85;;;;;;;15.32;100.00;96777.63;5037694;28;20201;-69
2023/10/09 05:10:06;;;;;;;7.35;2.85;;;;;;;15.17;100.00;96775.19;5038951;28;20358;-69
2023/10/09 05:12:31;;;;;;;8.25;3.05;;;;;;;15.15;100.00;96767.44;5037561;28;20217;-69
2023/10/09 05:15:08;;;;;;;10.80;2.58;;;;;;;15.18;100.00;96774.19;5038542;28;20263;-69
2023/10/09 05:17:35;;;;;;;6.65;2.33;;;;;;;15.10;100.00;96769.84;5037951;28;20223;-69
2023/10/09 05:22:58;;;;;;;6.70;3.33;;;;;;;15.23;100.00;96775.28;5037980;28;20286;-69
2023/10/09 05:28:31;;;;;;;7.35;3.05;;;;;;;15.18;100.00;96769.69;5031634;28;20747;-69
2023/10/09 05:31:06;;;;;;;5.72;2.25;;;;;;;15.29;100.00;96775.31;5038875;28;20585;-69
2023/10/09 05:33:36;;;;;;;9.57;2.15;;;;;;;15.26;100.00;96773.06;5037802;28;20228;-69
2023/10/09 05:36:31;;;;;;;6.63;2.38;;;;;;;15.44;100.00;96768.09;5038185;28;20200;-69
2023/10/09 05:50:33;;;;;;;8.07;2.67;;;;;;;15.46;100.00;96765.25;5031888;28;20968;-69
2023/10/09 05:53:04;;;;;;;11.88;2.40;;;;;;;15.53;100.00;96776.72;5037010;28;20236;-69
2023/10/09 06:03:53;;;;;;;8.77;3.03;;;;;;;15.59;100.00;96773.28;5035295;28;20197;-69
2023/10/09 06:06:32;;;;;;;8.13;2.10;;;;;;;15.69;100.00;96781.75;5035664;28;20220;-69
2023/10/09 06:09:35;;;;;;;4.05;2.40;;;;;;;15.75;100.00;96788.94;5036147;28;20201;-69
2023/10/09 06:15:18;;;;;;;7.22;2.45;;;;;;;15.80;100.00;96799.81;5036748;28;20736;-69
2023/10/09 06:17:50;;;;;;;4.53;1.83;;;;;;;15.99;100.00;96798.06;5035383;28;20201;-69
2023/10/09 06:23:15;;;;;;;6.35;1.70;;;;;;;16.14;100.00;96803.25;5035419;28;20714;-69
2023/10/09 06:25:50;;;;;;;9.07;2.40;;;;;;;16.21;100.00;96801.44;5034633;28;20205;-69
2023/10/09 06:28:32;;;;;;;7.13;2.63;;;;;;;16.37;100.00;96804.63;5035558;28;20406;-69
2023/10/09 06:31:27;;;;;;;8.23;2.33;;;;;;;16.28;100.00;96805.81;5035455;28;20630;-69
2023/10/09 06:34:07;;;;;;;8.00;2.40;;;;;;;16.35;100.00;96806.66;5035109;28;20201;-69
2023/10/09 06:36:34;;;;;;;6.05;2.22;;;;;;;16.23;100.00;96808.22;5036295;28;20300;-69
2023/10/09 06:39:50;;;;;;;6.32;2.67;;;;;;;16.41;100.00;96813.84;5036142;28;20201;-71
2023/10/09 06:42:09;;;;;;;7.95;1.83;;;;;;;16.47;100.00;96815.72;5034950;28;20225;-71
2023/10/09 06:47:17;;;;;;;6.80;2.80;;;;;;;16.64;100.00;96817.00;5034055;28;20197;-71
2023/10/09 06:50:12;;;;;;;12.77;2.00;;;;;;;16.83;100.00;96816.25;5035731;28;20835;-71
2023/10/09 06:52:57;;;;;;;7.38;2.50;;;;;;;16.87;100.00;96814.81;5035224;28;20261;-71
2023/10/09 06:55:32;;;;;;;4.47;2.15;;;;;;;16.99;100.00;96816.66;5034884;28;20298;-71
2023/10/09 06:58:01;;;;;;;6.25;2.10;;;;;;;17.11;100.00;96823.03;5033919;28;20604;-71
2023/10/09 07:03:13;;;;;;;11.15;2.53;;;;;;;17.31;100.00;96814.09;5034419;28;20355;-71
2023/10/09 07:06:00;;;;;;;5.03;2.60;;;;;;;17.37;100.00;96810.59;5035050;28;20211;-71
2023/10/09 07:08:31;;;;;;;15.93;2.38;;;;;;;17.40;100.00;96815.53;5033692;28;20259;-71
2023/10/09 07:11:20;;;;;;;5.35;2.10;;;;;;;17.49;100.00;96819.63;5033889;28;20249;-71
2023/10/09 07:13:52;;;;;;;3.90;2.03;;;;;;;17.52;100.00;96819.19;5034244;28;20655;-71
2023/10/09 07:16:28;;;;;;;9.90;2.25;;;;;;;17.71;100.00;96818.38;5034123;28;20201;-71
2023/10/09 07:18:55;;;;;;;3.78;1.88;;;;;;;17.71;100.00;96815.69;5033452;28;21175;-71
2023/10/09 07:21:27;;;;;;;5.32;1.80;;;;;;;17.75;100.00;96814.25;5034194;28;20197;-71
2023/10/09 07:23:57;;;;;;;5.82;2.15;;;;;;;17.70;100.00;96816.72;5034022;28;20620;-71
2023/10/09 07:26:36;;;;;;;5.95;2.33;;;;;;;17.64;100.00;96812.22;5033629;28;20223;-71
2023/10/09 07:29:16;;;;;;;5.07;2.15;;;;;;;17.68;100.00;96808.13;5033264;28;20205;-71
2023/10/09 07:31:45;;;;;;;5.68;2.15;;;;;;;17.89;100.00;96807.88;5033529;28;20232;-71
2023/10/09 07:36:57;;;;;;;7.65;2.47;;;;;;;17.65;100.00;96802.38;5034720;28;20254;-71
2023/10/09 07:39:24;;;;;;;8.70;2.00;;;;;;;17.76;100.00;96807.91;5035644;28;20205;-71
2023/10/09 07:42:01;;;;;;;5.65;1.85;;;;;;;17.77;100.00;96812.22;5033764;28;20585;-71
2023/10/09 07:44:37;;;;;;;7.40;1.60;;;;;;;17.75;100.00;96815.06;5035072;28;20201;-71
2023/10/09 07:47:17;;;;;;;5.90;2.15;;;;;;;17.84;100.00;96821.00;5034644;28;20201;-71
2023/10/09 07:49:48;;;;;;;7.25;2.00;;;;;;;17.87;100.00;96828.59;5029861;28;20254;-71
2023/10/09 07:52:16;;;;;;;4.78;1.80;;;;;;;18.02;100.00;96821.19;5033801;28;20225;-72
2023/10/09 07:54:49;;;;;;;3.15;1.63;;;;;;;17.93;100.00;96817.09;5034339;28;20243;-71
2023/10/09 07:57:17;;;;;;;6.50;2.15;;;;;;;18.02;100.00;96821.19;5033109;28;20197;-71
2023/10/09 07:59:54;;;;;;;5.32;2.28;;;;;;;18.00;100.00;96828.59;5034993;28;20228;-71
2023/10/09 08:02:31;;;;;;;5.35;1.90;;;;;;;18.08;100.00;96825.69;5034741;28;20228;-71
2023/10/09 08:05:03;;;;;;;4.28;2.10;;;;;;;18.11;100.00;96827.94;5034142;28;20208;-71
2023/10/09 08:07:35;;;;;;;11.80;1.85;;;;;;;17.99;100.00;96826.94;5037837;28;20211;-72
2023/10/09 08:12:58;;;;;;;8.98;1.85;;;;;;;18.02;100.00;96824.66;5037992;28;20375;-71
2023/10/09 08:15:28;;;;;;;8.13;2.05;;;;;;;18.19;100.00;96828.56;5038361;28;20212;-72
2023/10/09 08:18:03;;;;;;;7.88;1.83;;;;;;;18.35;100.00;96828.94;5036694;28;20260;-71
2023/10/09 08:20:50;;;;;;;4.80;2.20;;;;;;;18.28;100.00;96821.13;5037772;28;21251;-72
2023/10/09 08:23:28;;;;;;;6.05;2.55;;;;;;;18.25;100.00;96825.03;5037522;28;20706;-72
2023/10/09 08:26:12;;;;;;;3.03;1.88;;;;;;;18.56;100.00;96825.97;5037728;28;20205;-71
2023/10/09 08:28:42;;;;;;;9.55;2.35;;;;;;;18.34;100.00;96821.13;5037015;28;20212;-72
2023/10/09 08:31:19;;;;;;;5.22;2.45;;;;;;;18.60;100.00;96829.84;5038547;28;20297;-71
2023/10/09 08:33:56;;;;;;;3.15;1.45;;;;;;;18.69;100.00;96828.56;5037944;28;20197;-72
2023/10/09 08:36:28;;;;;;;13.10;2.60;;;;;;;18.57;100.00;96832.97;5037062;28;20212;-72
2023/10/09 08:38:58;;;;;;;3.08;1.45;;;;;;;18.76;100.00;96833.88;5036962;28;20205;-71
2023/10/09 08:41:29;;;;;;;4.07;1.58;;;;;;;18.81;100.00;96837.53;5037995;28;20201;-71
2023/10/09 08:43:57;;;;;;;12.65;2.90;;;;;;;18.84;100.00;96838.97;5036658;28;20201;-72
2023/10/09 08:46:26;;;;;;;8.07;2.28;;;;;;;18.87;100.00;96830.56;5036912;28;20201;-71
2023/10/09 08:48:55;;;;;;;6.30;1.48;;;;;;;18.99;100.00;96832.31;5036700;28;20205;-71
2023/10/09 08:51:23;;;;;;;6.28;2.17;;;;;;;19.22;100.00;96822.75;5036810;28;20312;-71
2023/10/09 08:53:49;;;;;;;7.53;2.17;;;;;;;19.38;100.00;96834.78;5037667;28;20197;-72
2023/10/09 08:56:21;;;;;;;2.80;1.52;;;;;;;19.61;100.00;96830.47;5036675;28;20197;-71
2023/10/09 08:58:51;;;;;;;5.65;1.90;;;;;;;19.51;100.00;96830.13;5036985;28;20408;-72
2023/10/09 09:01:20;;;;;;;5.07;1.45;;;;;;;19.64;100.00;96830.84;5037950;28;20633;-72
2023/10/09 09:03:47;;;;;;;11.35;2.20;;;;;;;19.57;100.00;96832.75;5036550;28;20338;-72
2023/10/09 09:06:15;;;;;;;4.65;2.10;;;;;;;20.05;100.00;96841.84;5035648;28;20200;-71
2023/10/09 09:08:48;;;;;;;2.08;1.15;;;;;;;20.06;100.00;96838.13;5036257;28;20197;-71
2023/10/09 09:11:17;;;;;;;15.65;2.10;;;;;;;20.18;100.00;96846.25;5037832;28;20335;-71
2023/10/09 09:13:51;;;;;;;2.70;1.30;;;;;;;20.04;100.00;96848.22;5037139;28;20655;-71
2023/10/09 09:16:20;;;;;;;3.65;2.05;;;;;;;19.88;100.00;96848.75;5036293;28;20209;-70
2023/10/09 09:19:00;;;;;;;10.65;2.70;;;;;;;20.02;100.00;96849.47;5035023;28;20395;-72
2023/10/09 09:21:29;;;;;;;4.50;1.15;;;;;;;20.10;100.00;96844.66;5036765;28;20200;-72
2023/10/09 09:24:00;;;;;;;4.63;1.42;;;;;;;19.92;100.00;96854.50;5036786;28;20240;-71
2023/10/09 09:26:38;;;;;;;8.73;2.90;;;;;;;20.16;100.00;96853.66;5036915;28;20308;-71
2023/10/09 09:29:06;;;;;;;6.00;1.48;;;;;;;19.80;100.00;96854.38;5036013;28;20201;-71
2023/10/09 09:31:37;;;;;;;5.50;1.55;;;;;;;20.03;100.00;96857.28;5036619;28;20237;-71
2023/10/09 09:34:13;;;;;;;3.25;1.27;;;;;;;20.27;100.00;96859.09;5037281;28;20232;-72
2023/10/09 09:36:56;;;;;;;4.05;1.17;;;;;;;20.46;100.00;96860.75;5035975;28;20220;-71
2023/10/09 09:39:28;;;;;;;6.22;1.50;;;;;;;20.28;100.00;96858.88;5034535;28;20228;-71
2023/10/09 09:42:03;;;;;;;3.13;1.50;;;;;;;20.69;100.00;96860.91;5035847;28;20275;-72
2023/10/09 09:44:43;;;;;;;6.03;2.30;;;;;;;20.42;100.00;96857.69;5036271;28;20698;-72
2023/10/09 09:47:13;;;;;;;7.25;2.00;;;;;;;20.55;100.00;96864.78;5035350;28;20658;-71
2023/10/09 09:49:43;;;;;;;3.63;1.25;;;;;;;20.60;100.00;96856.88;5036290;28;20201;-71
2023/10/09 09:52:11;;;;;;;12.57;2.30;;;;;;;20.50;100.00;96854.72;5035703;28;20235;-71
2023/10/09 09:54:38;;;;;;;2.10;1.30;;;;;;;20.78;100.00;96859.59;5036324;28;20205;-71
2023/10/09 09:57:10;;;;;;;11.18;2.13;;;;;;;20.77;100.00;96858.75;5035747;28;20201;-71
2023/10/09 09:59:49;;;;;;;7.70;1.73;;;;;;;20.93;100.00;96858.97;5035870;28;20339;-72
2023/10/09 10:02:22;;;;;;;8.60;1.67;;;;;;;20.97;100.00;96854.78;5035410;28;20714;-71
2023/10/09 10:04:56;;;;;;;3.75;1.27;;;;;;;21.21;100.00;96856.53;5036688;28;20201;-71
2023/10/09 10:07:29;;;;;;;7.30;1.95;;;;;;;21.23;100.00;96865.16;5034843;28;20209;-72
2023/10/09 10:09:57;;;;;;;5.25;1.30;;;;;;;21.13;100.00;96875.59;5034314;28;20205;-72
2023/10/09 10:13:00;;;;;;;3.85;2.08;;;;;;;21.67;100.00;96870.91;5036395;28;20575;-72
2023/10/09 10:16:09;;;;;;;9.95;1.83;;;;;;;21.65;100.00;96886.44;5031015;28;20266;-72
2023/10/09 10:18:54;;;;;;;5.82;2.05;;;;;;;21.68;100.00;96885.16;5034295;28;20208;-72
2023/10/09 10:21:33;;;;;;;3.97;1.42;;;;;;;21.49;100.00;96880.88;5034677;28;20300;-71
2023/10/09 10:24:06;;;;;;;4.13;2.15;;;;;;;21.47;100.00;96880.25;5035026;28;20312;-71
2023/10/09 10:26:34;;;;;;;8.52;1.92;;;;;;;21.45;100.00;96877.81;5034568;28;20209;-71
2023/10/09 10:29:26;;;;;;;12.02;2.22;;;;;;;21.73;100.00;96861.94;5034911;28;20197;-71
2023/10/09 10:31:55;;;;;;;3.20;1.08;;;;;;;21.71;100.00;96869.38;5034932;28;20232;-71
2023/10/09 10:34:23;;;;;;;4.35;1.65;;;;;;;21.53;100.00;96871.34;5035336;28;20216;-72
2023/10/09 10:36:52;;;;;;;7.53;1.80;;;;;;;21.55;100.00;96869.25;5035111;28;20201;-72
2023/10/09 10:39:25;;;;;;;3.25;1.35;;;;;;;21.82;100.00;96862.44;5035118;28;20205;-71
2023/10/09 10:41:56;;;;;;;9.27;2.15;;;;;;;22.25;100.00;96861.88;5034099;28;20263;-72
2023/10/09 10:47:24;;;;;;;4.10;1.63;;;;;;;22.03;100.00;96862.66;5033527;28;20201;-71
2023/10/09 10:49:51;;;;;;;1.95;1.45;;;;;;;22.20;100.00;96863.63;5034799;28;20193;-71
2023/10/09 10:52:22;;;;;;;3.80;1.95;;;;;;;22.40;100.00;96858.72;5033233;28;20248;-71
2023/10/09 10:55:05;;;;;;;6.25;1.70;;;;;;;22.33;100.00;96861.53;5034503;28;20205;-71
2023/10/09 11:03:17;;;;;;;2.75;1.13;;;;;;;22.19;100.00;96860.09;5034448;28;20282;-72
2023/10/09 11:05:50;;;;;;;6.20;1.58;;;;;;;22.10;100.00;96856.13;5035266;28;20296;-72
2023/10/09 11:08:22;;;;;;;4.03;1.13;;;;;;;22.30;100.00;96863.88;5033865;28;20230;-73
2023/10/09 11:10:53;;;;;;;7.35;1.95;;;;;;;22.44;100.00;96855.34;5033291;28;20298;-72
2023/10/09 11:13:30;;;;;;;2.28;0.90;;;;;;;22.45;100.00;96856.16;5032639;28;20225;-72
2023/10/09 11:16:14;;;;;;;3.53;1.77;;;;;;;22.24;100.00;96854.03;5034738;28;20304;-72
2023/10/09 11:18:46;;;;;;;6.70;1.50;;;;;;;22.36;100.00;96842.25;5034047;28;20240;-71
2023/10/09 11:21:31;;;;;;;4.22;1.20;;;;;;;22.46;100.00;96847.06;5034190;28;21147;-72
2023/10/09 11:24:09;;;;;;;5.80;2.03;;;;;;;22.65;100.00;96851.22;5033326;28;20201;-71
2023/10/09 11:26:40;;;;;;;5.38;1.70;;;;;;;22.68;100.00;96846.16;5036099;28;20233;-72
2023/10/09 11:29:23;;;;;;;3.60;1.48;;;;;;;22.68;99.34;96849.69;5033981;28;20577;-72
2023/10/09 11:31:59;;;;;;;3.80;1.48;;;;;;;22.72;98.69;96844.63;5033551;28;20335;-72
2023/10/09 11:34:32;;;;;;;5.78;1.67;;;;;;;22.83;98.49;96838.44;5035388;28;20359;-72
2023/10/09 11:37:00;;;;;;;5.78;1.80;;;;;;;23.07;99.17;96838.13;5033866;28;20544;-72
2023/10/09 11:39:34;;;;;;;5.65;1.48;;;;;;;23.17;98.19;96837.53;5034138;28;20824;-72
2023/10/09 11:42:05;;;;;;;2.17;1.08;;;;;;;22.93;99.73;96830.56;5033656;28;20224;-71
2023/10/09 11:44:40;;;;;;;5.07;2.00;;;;;;;23.20;97.48;96819.03;5034062;28;20220;-71
2023/10/09 11:47:24;;;;;;;4.70;1.30;;;;;;;23.03;98.18;96812.78;5033743;28;20880;-71
2023/10/09 11:50:11;;;;;;;4.95;1.45;;;;;;;23.04;98.97;96816.28;5034132;28;20201;-71
2023/10/09 11:53:08;;;;;;;6.85;1.45;;;;;;;23.22;97.78;96811.53;5033927;28;20240;-71
2023/10/09 11:55:35;;;;;;;8.73;1.60;;;;;;;22.93;98.54;96838.63;5033074;28;20205;-71
2023/10/09 11:58:04;;;;;;;3.78;1.55;;;;;;;22.95;96.45;96821.22;5033575;28;20278;-71
2023/10/09 12:00:42;;;;;;;4.65;1.45;;;;;;;23.16;97.56;96823.25;5033534;28;20204;-71
2023/10/09 12:03:09;;;;;;;3.85;1.35;;;;;;;23.00;99.41;96820.50;5031962;28;20225;-71
2023/10/09 12:05:35;;;;;;;9.93;1.38;;;;;;;22.85;97.56;96825.59;5031970;28;20207;-71
2023/10/09 12:08:08;;;;;;;8.20;1.65;;;;;;;22.95;97.44;96831.97;5032005;28;20197;-71
2023/10/09 12:10:38;;;;;;;2.10;0.90;;;;;;;23.00;95.44;96839.34;5031150;28;20288;-71
2023/10/09 12:13:07;;;;;;;4.90;2.15;;;;;;;23.20;96.95;96837.03;5032590;28;20224;-71
2023/10/09 12:15:37;;;;;;;6.28;1.50;;;;;;;22.82;98.99;96839.47;5033073;28;20209;-71
2023/10/09 12:18:15;;;;;;;4.18;1.38;;;;;;;23.31;97.76;96831.63;5033948;28;20213;-71
2023/10/09 12:20:48;;;;;;;3.38;1.33;;;;;;;23.38;97.10;96826.88;5034168;28;20209;-71
2023/10/09 12:23:15;;;;;;;4.45;1.60;;;;;;;23.35;97.15;96822.81;5033506;28;20217;-71
2023/10/09 12:25:44;;;;;;;14.63;1.48;;;;;;;23.41;96.80;96819.16;5029559;28;20233;-71
2023/10/09 12:28:13;;;;;;;3.97;1.65;;;;;;;23.95;96.87;96824.69;5032564;28;20204;-71
2023/10/09 12:30:41;;;;;;;1.88;0.95;;;;;;;23.74;95.74;96826.47;5031172;28;20306;-71
2023/10/09 12:33:08;;;;;;;2.92;0.93;;;;;;;23.58;95.17;96838.81;5031366;28;20729;-71
2023/10/09 12:35:39;;;;;;;5.32;2.47;;;;;;;23.86;96.09;96840.69;5031261;28;20209;-71
2023/10/09 12:38:10;;;;;;;4.43;2.20;;;;;;;23.68;94.17;96828.22;5031744;28;20494;-71
2023/10/09 12:40:39;;;;;;;7.90;2.33;;;;;;;23.79;95.96;96824.69;5030746;28;20214;-71
2023/10/09 12:43:15;;;;;;;14.25;1.98;;;;;;;23.59;92.73;96816.25;5031487;28;21063;-71
2023/10/09 12:45:43;;;;;;;5.03;1.38;;;;;;;23.69;95.32;96813.75;5028747;28;20212;-71